createdAt,value
2023-05-23T00:02:20.845Z,18.60
2023-05-23T00:07:22.607Z,18.87
2023-05-23T00:12:24.348Z,18.00
2023-05-23T00:17:27.579Z,19.90
2023-05-23T00:22:29.287Z,22.30
2023-05-23T00:27:30.998Z,19.30
2023-05-23T00:32:35.523Z,20.10
2023-05-23T00:37:38.110Z,26.00
2023-05-23T00:42:39.867Z,22.30
2023-05-23T00:47:42.973Z,22.70
2023-05-23T00:52:45.743Z,22.20
2023-05-23T00:57:47.609Z,20.07
2023-05-23T01:02:53.995Z,22.27
2023-05-23T01:07:56.031Z,24.53
2023-05-23T01:13:06.596Z,21.23
2023-05-23T01:18:10.528Z,21.80
2023-05-23T01:24:00.229Z,28.93
2023-05-23T01:29:10.190Z,36.33
2023-05-23T01:34:12.646Z,37.40
2023-05-23T01:39:14.412Z,40.53
2023-05-23T01:44:18.625Z,44.13
2023-05-23T01:49:22.735Z,35.70
2023-05-23T01:54:24.445Z,39.70
2023-05-23T01:59:27.526Z,36.27
2023-05-23T02:04:31.790Z,36.10
2023-05-23T02:09:33.947Z,35.60
2023-05-23T02:14:37.519Z,40.17
2023-05-23T02:19:39.381Z,37.30
2023-05-23T02:24:41.092Z,36.90
2023-05-23T02:29:44.188Z,40.67
2023-05-23T02:34:46.820Z,39.63
2023-05-23T02:39:48.596Z,45.53
2023-05-23T02:44:51.704Z,43.87
2023-05-23T02:49:53.860Z,55.13
2023-05-23T02:54:55.726Z,51.13
2023-05-23T02:59:58.914Z,54.77
2023-05-23T03:05:00.758Z,78.23
2023-05-23T03:10:02.610Z,77.33
2023-05-23T03:15:08.001Z,75.13
2023-05-23T03:20:12.377Z,78.10
2023-05-23T03:25:15.379Z,93.93
2023-05-23T03:30:19.119Z,98.33
2023-05-23T03:35:21.198Z,72.50
2023-05-23T03:40:23.071Z,71.50
2023-05-23T03:45:26.722Z,57.20
2023-05-23T03:50:28.773Z,48.07
2023-05-23T03:55:32.623Z,46.80
2023-05-23T04:00:36.043Z,42.07
2023-05-23T04:05:40.565Z,39.07
2023-05-23T04:10:43.832Z,40.93
2023-05-23T04:15:48.207Z,46.90
2023-05-23T04:20:50.237Z,44.23
2023-05-23T04:25:52.579Z,40.37
2023-05-23T04:31:03.221Z,41.90
2023-05-23T04:36:09.350Z,40.67
2023-05-23T04:41:16.221Z,40.67
2023-05-23T04:46:41.882Z,37.63
2023-05-23T04:51:51.161Z,32.60
2023-05-23T04:56:56.740Z,34.20
2023-05-23T05:02:01.865Z,32.30
2023-05-23T05:07:04.638Z,29.30
2023-05-23T05:12:06.849Z,24.63
2023-05-23T05:17:10.249Z,23.00
2023-05-23T05:22:26.631Z,22.80
2023-05-23T05:27:28.736Z,24.00
2023-05-23T05:32:33.712Z,22.73
2023-05-23T05:37:36.616Z,27.87
2023-05-23T05:42:38.601Z,27.10
2023-05-23T05:47:41.872Z,29.20
2023-05-23T05:52:43.801Z,28.50
2023-05-23T05:57:46.873Z,27.40
2023-05-23T06:02:51.955Z,29.50
2023-05-23T06:08:07.367Z,32.03
2023-05-23T06:13:09.106Z,26.87
2023-05-23T06:18:13.575Z,26.73
2023-05-23T06:23:15.477Z,25.60
2023-05-23T06:28:17.265Z,28.90
2023-05-23T06:33:22.084Z,30.60
2023-05-23T06:38:26.755Z,30.77
2023-05-23T06:43:28.427Z,31.73
2023-05-23T06:48:45.782Z,31.43
2023-05-23T06:53:47.484Z,33.40
2023-05-23T06:58:49.646Z,31.40
2023-05-23T07:03:53.055Z,31.47
2023-05-23T07:08:54.883Z,30.33
2023-05-23T07:13:58.786Z,25.90
2023-05-23T07:19:13.213Z,30.83
2023-05-23T07:24:23.897Z,25.17
2023-05-23T07:29:28.798Z,26.30
2023-05-23T07:34:32.188Z,27.57
2023-05-23T07:39:36.274Z,25.33
2023-05-23T07:44:39.107Z,19.87
2023-05-23T07:49:42.634Z,22.20
2023-05-23T07:54:44.416Z,17.77
2023-05-23T07:59:47.428Z,16.30
2023-05-23T08:04:51.004Z,12.20
2023-05-23T08:09:53.437Z,13.13
2023-05-23T08:15:14.846Z,12.33
2023-05-23T08:20:22.496Z,13.83
2023-05-23T08:25:25.191Z,9.80
2023-05-23T08:30:27.485Z,10.07
2023-05-23T08:35:34.995Z,13.40
2023-05-23T08:40:37.384Z,13.13
2023-05-23T08:45:46.080Z,10.90
2023-05-23T08:50:51.058Z,13.13
2023-05-23T08:55:56.442Z,13.27
2023-05-23T09:01:01.963Z,15.20
2023-05-23T09:06:06.747Z,17.90
2023-05-23T09:11:12.940Z,17.37
2023-05-23T09:16:16.359Z,18.20
2023-05-23T09:21:24.498Z,19.93
2023-05-23T09:26:33.576Z,19.53
2023-05-23T09:31:36.469Z,18.83
2023-05-23T09:36:40.985Z,18.40
2023-05-23T09:41:48.541Z,13.60
2023-05-23T09:46:52.717Z,12.33
2023-05-23T09:52:00.179Z,14.80
2023-05-23T09:57:02.282Z,20.10
2023-05-23T10:02:04.290Z,26.43
2023-05-23T10:07:14.903Z,22.87
2023-05-23T10:12:44.754Z,18.73
2023-05-23T10:18:03.986Z,24.10
2023-05-23T10:23:07.075Z,24.40
2023-05-23T10:28:08.878Z,26.00
2023-05-23T10:33:11.630Z,19.77
2023-05-23T10:38:21.781Z,22.83
2023-05-23T10:43:26.588Z,21.67
2023-05-23T10:48:37.495Z,22.40
2023-05-23T10:53:41.729Z,24.67
2023-05-23T10:58:43.451Z,19.73
2023-05-23T11:03:54.727Z,19.27
2023-05-23T11:09:07.894Z,14.23
2023-05-23T11:14:09.971Z,17.50
2023-05-23T11:19:27.724Z,14.27
2023-05-23T11:24:50.947Z,19.70
2023-05-23T11:29:57.930Z,15.80
2023-05-23T11:35:00.436Z,15.00
2023-05-23T11:40:27.988Z,16.80
2023-05-23T11:45:30.312Z,12.77
2023-05-23T11:50:32.043Z,19.33
2023-05-23T11:55:35.066Z,16.77
2023-05-23T12:00:43.472Z,16.60
2023-05-23T12:05:45.577Z,18.33
2023-05-23T12:10:52.362Z,12.80
2023-05-23T12:15:54.961Z,18.80
2023-05-23T12:20:59.828Z,16.07
2023-05-23T12:26:04.583Z,20.00
2023-05-23T12:31:10.818Z,23.30
2023-05-23T12:36:12.682Z,30.10
2023-05-23T12:41:19.554Z,22.23
2023-05-23T12:46:21.920Z,21.53
2023-05-23T12:51:23.666Z,21.27
2023-05-23T12:56:26.719Z,22.10
2023-05-23T13:01:28.482Z,23.30
2023-05-23T13:06:30.268Z,23.37
2023-05-23T13:11:33.293Z,20.20
2023-05-23T13:16:36.250Z,16.40
2023-05-23T13:21:37.999Z,13.27
2023-05-23T13:26:41.009Z,14.70
2023-05-23T13:31:42.746Z,14.50
2023-05-23T13:36:44.485Z,15.90
2023-05-23T13:41:47.511Z,15.53
2023-05-23T13:46:49.305Z,24.57
2023-05-23T13:51:51.102Z,16.10
2023-05-23T13:56:54.176Z,16.23
2023-05-23T14:01:56.050Z,16.40
2023-05-23T14:06:57.848Z,21.50
2023-05-23T14:12:01.351Z,20.83
2023-05-23T14:17:03.308Z,21.10
2023-05-23T14:22:05.617Z,23.80
2023-05-23T14:27:10.834Z,21.43
2023-05-23T14:32:13.282Z,19.40
2023-05-23T14:37:15.147Z,21.83
2023-05-23T14:42:18.175Z,18.63
2023-05-23T14:47:19.862Z,23.70
2023-05-23T14:52:21.656Z,19.33
2023-05-23T14:57:24.836Z,19.17
2023-05-23T15:02:26.834Z,25.20
2023-05-23T15:07:28.715Z,18.10
2023-05-23T15:12:31.843Z,16.93
2023-05-23T15:17:33.673Z,21.10
2023-05-23T15:22:39.696Z,14.90
2023-05-23T15:27:44.857Z,19.70
2023-05-23T15:32:47.613Z,19.83
2023-05-23T15:37:49.410Z,21.93
2023-05-23T15:42:52.456Z,24.13
2023-05-23T15:47:54.232Z,16.37
2023-05-23T15:52:56.029Z,12.03
2023-05-23T15:57:59.244Z,20.30
2023-05-23T16:03:01.033Z,14.13
2023-05-23T16:08:02.792Z,22.10
2023-05-23T16:13:05.884Z,23.33
2023-05-23T16:18:07.576Z,17.57
2023-05-23T16:23:09.292Z,13.77
2023-05-23T16:28:12.334Z,20.13
2023-05-23T16:33:14.109Z,14.13
2023-05-23T16:38:15.875Z,19.03
2023-05-23T16:43:18.990Z,16.53
2023-05-23T16:48:21.500Z,21.13
2023-05-23T16:53:23.333Z,27.07
2023-05-23T16:58:26.345Z,19.13
2023-05-23T17:03:29.272Z,13.57
2023-05-23T17:08:31.070Z,18.97
2023-05-23T17:13:34.705Z,18.70
2023-05-23T17:18:36.559Z,21.97
2023-05-23T17:23:38.304Z,16.53
2023-05-23T17:28:42.002Z,14.80
2023-05-23T17:33:44.341Z,19.13
2023-05-23T17:38:46.050Z,15.97
2023-05-23T17:43:49.811Z,17.47
2023-05-23T17:48:51.519Z,12.40
2023-05-23T17:53:53.763Z,19.20
2023-05-23T17:58:57.107Z,11.80
2023-05-23T18:03:58.833Z,15.23
2023-05-23T18:09:00.559Z,14.37
2023-05-23T18:14:03.835Z,18.50
2023-05-23T18:19:05.805Z,12.93
2023-05-23T18:24:08.914Z,24.57
2023-05-23T18:29:12.015Z,19.53
2023-05-23T18:34:13.730Z,15.37
2023-05-23T18:39:15.574Z,18.97
2023-05-23T18:44:20.964Z,11.57
2023-05-23T18:49:23.011Z,19.93
2023-05-23T18:54:24.707Z,16.80
2023-05-23T18:59:27.781Z,13.33
2023-05-23T19:04:29.511Z,21.73
2023-05-23T19:09:31.248Z,16.00
2023-05-23T19:14:34.378Z,15.57
2023-05-23T19:19:37.470Z,18.97
2023-05-23T19:24:39.324Z,18.23
2023-05-23T19:29:42.478Z,18.77
2023-05-23T19:34:44.366Z,22.10
2023-05-23T19:39:46.232Z,9.33
2023-05-23T19:44:50.081Z,22.83
2023-05-23T19:49:51.775Z,15.53
2023-05-23T19:54:53.501Z,15.17
2023-05-23T19:59:56.712Z,17.90
2023-05-23T20:04:58.408Z,19.17
2023-05-23T20:10:00.184Z,12.33
2023-05-23T20:15:03.572Z,14.70
2023-05-23T20:20:06.646Z,22.27
2023-05-23T20:25:08.806Z,18.10
2023-05-23T20:30:13.215Z,13.03
2023-05-23T20:35:14.962Z,12.90
2023-05-23T20:40:17.021Z,19.10
2023-05-23T20:45:20.173Z,16.03
2023-05-23T20:50:22.564Z,14.30
2023-05-23T20:55:24.802Z,10.80
2023-05-23T21:00:28.348Z,21.27
2023-05-23T21:05:30.174Z,17.43
2023-05-23T21:10:32.037Z,19.17
2023-05-23T21:15:35.188Z,20.20
2023-05-23T21:20:36.892Z,12.90
2023-05-23T21:25:38.729Z,14.20
2023-05-23T21:30:42.138Z,18.43
2023-05-23T21:35:45.184Z,16.80
2023-05-23T21:40:46.977Z,19.30
2023-05-23T21:45:50.197Z,24.07
2023-05-23T21:50:51.900Z,14.60
2023-05-23T21:55:53.678Z,16.23
2023-05-23T22:00:56.857Z,19.20
2023-05-23T22:05:58.562Z,18.70
2023-05-23T22:11:00.898Z,12.07
2023-05-23T22:16:05.322Z,16.53
2023-05-23T22:21:07.104Z,17.43
2023-05-23T22:26:08.791Z,17.27
2023-05-23T22:31:13.448Z,20.87
2023-05-23T22:36:15.176Z,20.73
2023-05-23T22:41:17.108Z,19.70
2023-05-23T22:46:20.203Z,19.63
2023-05-23T22:51:22.237Z,17.67
2023-05-23T22:56:24.053Z,17.87
2023-05-23T23:01:27.108Z,15.33
2023-05-23T23:06:29.246Z,26.93
2023-05-23T23:11:31.045Z,16.27
2023-05-23T23:16:34.560Z,29.93
2023-05-23T23:21:37.568Z,32.90
2023-05-23T23:26:39.329Z,29.97
2023-05-23T23:31:42.434Z,31.10
2023-05-23T23:36:44.197Z,21.93
2023-05-23T23:41:45.906Z,14.50
2023-05-23T23:46:49.168Z,23.23
2023-05-23T23:51:50.998Z,21.70
2023-05-23T23:56:52.700Z,19.23
